createdAt,value
2017-06-10T00:02:00.359Z,22.00
2017-06-10T00:04:27.952Z,22.10
2017-06-10T00:06:55.511Z,22.20
2017-06-10T00:09:23.068Z,22.30
2017-06-10T00:11:50.630Z,22.40
2017-06-10T00:14:18.600Z,22.50
2017-06-10T00:16:46.155Z,22.50
2017-06-10T00:19:13.687Z,22.40
2017-06-10T00:21:41.219Z,22.50
2017-06-10T00:24:09.550Z,22.80
2017-06-10T00:26:37.112Z,22.80
2017-06-10T00:29:04.667Z,22.80
2017-06-10T00:31:32.196Z,22.80
2017-06-10T00:33:59.786Z,22.90
2017-06-10T00:36:27.319Z,23.00
2017-06-10T00:38:54.904Z,23.00
2017-06-10T00:41:22.426Z,23.20
2017-06-10T00:43:49.963Z,23.30
2017-06-10T00:46:18.296Z,22.80
2017-06-10T00:48:45.827Z,22.80
2017-06-10T00:51:13.415Z,23.00
2017-06-10T00:53:40.976Z,23.00
2017-06-10T00:56:08.539Z,23.10
2017-06-10T00:58:36.085Z,23.00
2017-06-10T01:01:03.615Z,23.00
2017-06-10T01:03:31.152Z,23.00
2017-06-10T01:05:59.483Z,22.80
2017-06-10T01:08:27.051Z,22.80
2017-06-10T01:10:54.608Z,22.80
2017-06-10T01:13:22.263Z,22.90
2017-06-10T01:15:49.827Z,22.50
2017-06-10T01:18:17.380Z,22.40
2017-06-10T01:20:44.928Z,22.30
2017-06-10T01:23:12.452Z,22.40
2017-06-10T01:25:40.771Z,22.40
2017-06-10T01:28:08.333Z,22.40
2017-06-10T01:30:35.895Z,22.50
2017-06-10T01:33:03.455Z,22.70
2017-06-10T01:35:31.016Z,22.70
2017-06-10T01:37:58.569Z,22.50
2017-06-10T01:40:26.095Z,22.60
2017-06-10T01:42:53.653Z,22.50
2017-06-10T01:45:21.243Z,22.60
2017-06-10T01:47:48.807Z,22.80
2017-06-10T01:50:16.479Z,22.70
2017-06-10T01:52:44.027Z,22.70
2017-06-10T01:55:11.564Z,22.80
2017-06-10T01:57:39.147Z,22.60
2017-06-10T02:00:06.699Z,22.60
2017-06-10T02:02:34.230Z,22.70
2017-06-10T02:05:01.820Z,22.60
2017-06-10T02:07:29.344Z,22.60
2017-06-10T02:09:56.941Z,22.60
2017-06-10T02:12:24.499Z,22.70
2017-06-10T02:14:52.064Z,22.70
2017-06-10T02:17:19.619Z,22.30
2017-06-10T02:19:47.172Z,21.90
2017-06-10T02:22:14.731Z,21.70
2017-06-10T02:24:42.289Z,21.50
2017-06-10T02:27:09.824Z,21.20
2017-06-10T02:29:37.405Z,21.60
2017-06-10T02:32:04.940Z,21.50
2017-06-10T02:34:32.525Z,21.30
2017-06-10T02:37:00.092Z,21.50
2017-06-10T02:39:27.647Z,21.20
2017-06-10T02:41:55.203Z,21.10
2017-06-10T02:44:22.759Z,21.10
2017-06-10T02:46:50.315Z,21.30
2017-06-10T02:49:17.878Z,21.50
2017-06-10T02:51:45.436Z,21.50
2017-06-10T02:54:13.000Z,21.30
2017-06-10T02:56:40.523Z,21.10
2017-06-10T02:59:08.114Z,20.70
2017-06-10T03:01:35.673Z,20.70
2017-06-10T03:04:03.226Z,21.00
2017-06-10T03:06:30.787Z,20.90
2017-06-10T03:08:58.352Z,20.80
2017-06-10T03:11:26.015Z,20.50
2017-06-10T03:13:53.567Z,20.40
2017-06-10T03:16:21.128Z,20.40
2017-06-10T03:18:48.655Z,20.70
2017-06-10T03:21:16.252Z,20.40
2017-06-10T03:23:43.804Z,20.60
2017-06-10T03:26:11.364Z,20.70
2017-06-10T03:28:38.891Z,20.60
2017-06-10T03:31:06.428Z,20.70
2017-06-10T03:33:34.755Z,20.10
2017-06-10T03:36:02.319Z,20.10
2017-06-10T03:38:29.876Z,20.10
2017-06-10T03:40:57.408Z,19.90
2017-06-10T03:43:24.992Z,19.90
2017-06-10T03:45:52.515Z,20.10
2017-06-10T03:48:20.055Z,20.20
2017-06-10T03:50:48.383Z,20.20
2017-06-10T03:53:15.908Z,20.20
2017-06-10T03:55:43.502Z,19.50
2017-06-10T03:58:11.059Z,19.40
2017-06-10T04:00:38.620Z,19.20
2017-06-10T04:03:06.186Z,18.90
2017-06-10T04:05:33.764Z,18.90
2017-06-10T04:08:02.122Z,19.20
2017-06-10T04:10:29.671Z,19.10
2017-06-10T04:12:57.424Z,19.40
2017-06-10T04:15:24.955Z,19.60
2017-06-10T04:17:52.487Z,19.70
2017-06-10T04:20:20.116Z,19.70
2017-06-10T04:22:47.700Z,19.90
2017-06-10T04:25:15.339Z,19.70
2017-06-10T04:27:42.867Z,19.80
2017-06-10T04:30:10.452Z,19.70
2017-06-10T04:32:38.017Z,19.70
2017-06-10T04:35:05.572Z,19.90
2017-06-10T04:37:33.127Z,19.70
2017-06-10T04:40:00.687Z,20.00
2017-06-10T04:42:28.223Z,20.20
2017-06-10T04:44:55.756Z,20.30
2017-06-10T04:47:24.079Z,20.50
2017-06-10T04:49:51.639Z,20.50
2017-06-10T04:52:19.167Z,20.50
2017-06-10T04:54:46.755Z,20.50
2017-06-10T04:57:14.315Z,20.50
2017-06-10T04:59:41.847Z,20.20
2017-06-10T05:02:09.391Z,19.90
2017-06-10T05:04:36.991Z,19.60
2017-06-10T05:07:04.553Z,19.30
2017-06-10T05:09:32.111Z,19.10
2017-06-10T05:11:59.672Z,19.20
2017-06-10T05:14:27.323Z,19.00
2017-06-10T05:16:54.859Z,19.10
2017-06-10T05:19:22.399Z,19.10
2017-06-10T05:21:50.727Z,18.20
2017-06-10T05:24:18.289Z,18.20
2017-06-10T05:26:45.939Z,18.40
2017-06-10T05:29:13.480Z,18.90
2017-06-10T05:31:41.064Z,19.10
2017-06-10T05:34:08.619Z,19.10
2017-06-10T05:36:36.163Z,19.30
2017-06-10T05:39:03.740Z,19.50
2017-06-10T05:41:31.286Z,19.60
2017-06-10T05:43:58.818Z,19.70
2017-06-10T05:46:26.423Z,19.70
2017-06-10T05:48:53.952Z,19.70
2017-06-10T05:51:21.491Z,19.70
2017-06-10T05:53:49.099Z,19.60
2017-06-10T05:56:16.651Z,19.70
2017-06-10T05:58:44.207Z,19.60
2017-06-10T06:01:11.743Z,19.70
2017-06-10T06:03:39.328Z,19.90
2017-06-10T06:06:06.886Z,19.90
2017-06-10T06:08:34.443Z,19.90
2017-06-10T06:11:02.004Z,19.90
2017-06-10T06:13:29.532Z,19.90
2017-06-10T06:15:57.119Z,20.10
2017-06-10T06:18:24.651Z,20.30
2017-06-10T06:20:52.242Z,20.40
2017-06-10T06:23:19.800Z,20.50
2017-06-10T06:25:47.355Z,20.50
2017-06-10T06:28:14.916Z,20.50
2017-06-10T06:30:42.450Z,20.60
2017-06-10T06:33:09.976Z,20.70
2017-06-10T06:35:38.308Z,20.70
2017-06-10T06:38:05.863Z,20.70
2017-06-10T06:40:33.427Z,20.50
2017-06-10T06:43:00.983Z,20.10
2017-06-10T06:45:28.535Z,20.20
2017-06-10T06:47:56.099Z,20.50
2017-06-10T06:50:23.660Z,20.60
2017-06-10T06:52:51.220Z,20.20
2017-06-10T06:55:18.788Z,20.30
2017-06-10T06:57:46.317Z,20.40
2017-06-10T07:00:13.847Z,20.70
2017-06-10T07:02:42.172Z,20.40
2017-06-10T07:05:09.731Z,20.40
2017-06-10T07:07:37.274Z,20.30
2017-06-10T07:10:04.799Z,20.40
2017-06-10T07:12:33.127Z,20.40
2017-06-10T07:15:00.685Z,20.40
2017-06-10T07:17:28.239Z,20.00
2017-06-10T07:19:55.798Z,20.30
2017-06-10T07:22:23.359Z,20.50
2017-06-10T07:24:50.920Z,20.50
2017-06-10T07:27:18.483Z,20.40
2017-06-10T07:29:46.140Z,20.50
2017-06-10T07:32:13.694Z,20.60
2017-06-10T07:34:41.228Z,20.70
2017-06-10T07:37:08.823Z,20.70
2017-06-10T07:39:36.359Z,20.60
2017-06-10T07:42:03.936Z,20.70
2017-06-10T07:44:31.467Z,20.20
2017-06-10T07:46:59.062Z,20.20
2017-06-10T07:49:26.608Z,20.20
2017-06-10T07:51:54.171Z,20.30
2017-06-10T07:54:21.711Z,20.00
2017-06-10T07:56:49.261Z,20.10
2017-06-10T07:59:16.845Z,20.00
2017-06-10T08:01:44.412Z,20.10
2017-06-10T08:04:11.939Z,20.30
2017-06-10T08:06:39.484Z,20.40
2017-06-10T08:09:07.048Z,20.60
2017-06-10T08:11:34.727Z,20.60
2017-06-10T08:14:02.303Z,20.60
2017-06-10T08:16:29.865Z,20.60
2017-06-10T08:18:57.419Z,20.80
2017-06-10T08:21:24.975Z,21.00
2017-06-10T08:23:52.535Z,21.10
2017-06-10T08:26:20.103Z,21.30
2017-06-10T08:28:47.654Z,21.50
2017-06-10T08:31:15.211Z,21.40
2017-06-10T08:33:42.767Z,21.30
2017-06-10T08:36:10.327Z,21.20
2017-06-10T08:38:37.859Z,21.40
2017-06-10T08:41:05.455Z,21.50
2017-06-10T08:43:33.107Z,21.60
2017-06-10T08:46:00.663Z,21.90
2017-06-10T08:48:28.227Z,22.20
2017-06-10T08:50:55.779Z,22.20
2017-06-10T08:53:23.344Z,22.10
2017-06-10T08:55:50.899Z,22.00
2017-06-10T08:58:18.458Z,22.30
2017-06-10T09:00:46.015Z,22.50
2017-06-10T09:03:13.580Z,22.60
2017-06-10T09:05:41.135Z,22.70
2017-06-10T09:08:08.679Z,22.70
2017-06-10T09:10:36.258Z,22.80
2017-06-10T09:13:03.811Z,22.70
2017-06-10T09:15:31.375Z,22.90
2017-06-10T09:17:58.931Z,23.10
2017-06-10T09:20:26.492Z,23.20
2017-06-10T09:22:54.015Z,23.10
2017-06-10T09:25:21.607Z,23.00
2017-06-10T09:27:49.171Z,22.90
2017-06-10T09:30:16.725Z,22.80
2017-06-10T09:32:44.335Z,23.00
2017-06-10T09:35:11.948Z,23.10
2017-06-10T09:37:39.511Z,23.10
2017-06-10T09:40:07.048Z,23.40
2017-06-10T09:42:34.619Z,23.50
2017-06-10T09:45:02.184Z,23.80
2017-06-10T09:47:29.829Z,24.20
2017-06-10T09:49:57.403Z,24.30
2017-06-10T09:52:24.931Z,24.10
2017-06-10T09:54:52.527Z,24.30
2017-06-10T09:57:20.187Z,24.40
2017-06-10T09:59:47.736Z,24.40
2017-06-10T10:02:15.299Z,24.40
2017-06-10T10:04:42.860Z,24.50
2017-06-10T10:07:10.424Z,24.30
2017-06-10T10:09:37.964Z,24.40
2017-06-10T10:12:05.531Z,24.20
2017-06-10T10:14:33.099Z,24.30
2017-06-10T10:17:00.647Z,24.70
2017-06-10T10:19:28.208Z,24.70
2017-06-10T10:21:55.771Z,24.80
2017-06-10T10:24:23.309Z,25.20
2017-06-10T10:26:50.891Z,25.40
2017-06-10T10:29:18.443Z,25.50
2017-06-10T10:31:46.013Z,25.60
2017-06-10T10:34:13.671Z,25.70
2017-06-10T10:36:41.209Z,25.70
2017-06-10T10:39:08.731Z,25.90
2017-06-10T10:41:37.060Z,26.30
2017-06-10T10:44:04.604Z,26.30
2017-06-10T10:46:32.179Z,26.80
2017-06-10T10:48:59.735Z,27.00
2017-06-10T10:51:27.271Z,27.40
2017-06-10T10:53:54.856Z,27.50
2017-06-10T10:56:22.397Z,27.70
2017-06-10T10:58:49.971Z,27.80
2017-06-10T11:01:17.531Z,27.70
2017-06-10T11:03:45.069Z,27.70
2017-06-10T11:06:12.650Z,27.90
2017-06-10T11:08:40.191Z,28.10
2017-06-10T11:11:07.763Z,28.10
2017-06-10T11:13:35.299Z,28.10
2017-06-10T11:16:02.883Z,27.90
2017-06-10T11:18:30.443Z,27.60
2017-06-10T11:20:57.966Z,27.50
2017-06-10T11:23:25.501Z,27.40
2017-06-10T11:25:53.839Z,28.10
2017-06-10T11:28:21.392Z,28.10
2017-06-10T11:30:48.951Z,28.20
2017-06-10T11:33:16.495Z,28.00
2017-06-10T11:35:44.382Z,27.90
2017-06-10T11:38:11.941Z,28.10
2017-06-10T11:40:39.502Z,28.20
2017-06-10T11:43:07.055Z,28.00
2017-06-10T11:45:34.586Z,27.80
2017-06-10T11:48:02.171Z,28.10
2017-06-10T11:50:29.740Z,28.20
2017-06-10T11:52:57.267Z,28.10
2017-06-10T11:55:24.856Z,28.10
2017-06-10T11:57:52.411Z,27.80
2017-06-10T12:00:19.955Z,28.00
2017-06-10T12:02:47.526Z,28.10
2017-06-10T12:05:15.055Z,28.30
2017-06-10T12:07:42.643Z,28.30
2017-06-10T12:10:10.171Z,28.20
2017-06-10T12:12:37.703Z,28.20
2017-06-10T12:15:06.004Z,28.20
2017-06-10T12:17:33.596Z,28.20
2017-06-10T12:20:01.119Z,27.00
2017-06-10T12:22:28.720Z,26.20
2017-06-10T12:24:56.271Z,25.70
2017-06-10T12:27:23.819Z,25.40
2017-06-10T12:29:51.396Z,25.30
2017-06-10T12:32:18.927Z,24.90
2017-06-10T12:34:47.072Z,24.70
2017-06-10T12:37:15.395Z,24.40
2017-06-10T12:39:42.960Z,24.40
2017-06-10T12:42:10.491Z,24.60
2017-06-10T12:44:38.082Z,24.50
2017-06-10T12:47:05.631Z,24.80
2017-06-10T12:49:33.196Z,24.90
2017-06-10T12:52:00.727Z,25.00
2017-06-10T12:54:28.253Z,25.20
2017-06-10T12:56:56.552Z,25.70
2017-06-10T12:59:24.144Z,25.70
2017-06-10T13:01:51.685Z,26.00
2017-06-10T13:04:19.221Z,26.40
2017-06-10T13:06:46.750Z,26.60
2017-06-10T13:09:14.395Z,26.80
2017-06-10T13:11:41.944Z,27.00
2017-06-10T13:14:09.494Z,27.40
2017-06-10T13:16:37.064Z,27.80
2017-06-10T13:19:04.600Z,28.00
2017-06-10T13:21:32.188Z,28.30
2017-06-10T13:23:59.735Z,28.30
2017-06-10T13:26:27.299Z,28.30
2017-06-10T13:28:54.851Z,28.40
2017-06-10T13:31:22.399Z,28.50
2017-06-10T13:33:49.971Z,28.60
2017-06-10T13:36:17.531Z,28.80
2017-06-10T13:38:45.091Z,28.70
2017-06-10T13:41:12.648Z,28.70
2017-06-10T13:43:40.203Z,28.80
2017-06-10T13:46:07.768Z,28.70
2017-06-10T13:48:35.324Z,28.70
2017-06-10T13:51:02.888Z,29.00
2017-06-10T13:53:30.427Z,29.00
2017-06-10T13:55:58.007Z,29.30
2017-06-10T13:58:25.568Z,29.20
2017-06-10T14:00:53.121Z,29.00
2017-06-10T14:03:20.675Z,28.50
2017-06-10T14:05:48.237Z,28.30
2017-06-10T14:08:15.795Z,28.30
2017-06-10T14:10:43.356Z,28.40
2017-06-10T14:13:10.911Z,28.30
2017-06-10T14:15:38.472Z,28.10
2017-06-10T14:18:05.994Z,28.20
2017-06-10T14:20:33.595Z,28.20
2017-06-10T14:23:01.159Z,28.40
2017-06-10T14:25:28.712Z,28.60
2017-06-10T14:27:56.255Z,28.50
2017-06-10T14:30:23.823Z,28.50
2017-06-10T14:32:51.383Z,28.30
2017-06-10T14:35:18.910Z,28.60
2017-06-10T14:37:46.448Z,28.60
2017-06-10T14:40:14.764Z,29.10
2017-06-10T14:42:42.363Z,29.10
2017-06-10T14:45:10.001Z,29.30
2017-06-10T14:47:37.560Z,29.50
2017-06-10T14:50:05.206Z,29.50
2017-06-10T14:52:32.772Z,29.60
2017-06-10T14:55:00.299Z,29.70
2017-06-10T14:57:27.886Z,29.70
2017-06-10T14:59:55.423Z,29.90
2017-06-10T15:02:23.016Z,29.90
2017-06-10T15:04:50.574Z,30.30
2017-06-10T15:07:18.132Z,30.40
2017-06-10T15:09:45.671Z,30.50
2017-06-10T15:12:13.252Z,30.40
2017-06-10T15:14:40.811Z,30.20
2017-06-10T15:17:08.372Z,29.80
2017-06-10T15:19:35.922Z,29.90
2017-06-10T15:22:03.484Z,30.10
2017-06-10T15:24:31.043Z,30.30
2017-06-10T15:26:58.603Z,30.40
2017-06-10T15:29:26.170Z,30.40
2017-06-10T15:31:53.708Z,30.30
2017-06-10T15:34:21.279Z,30.20
2017-06-10T15:36:48.820Z,30.10
2017-06-10T15:39:16.400Z,30.10
2017-06-10T15:41:43.959Z,30.00
2017-06-10T15:44:11.519Z,29.90
2017-06-10T15:46:39.080Z,29.70
2017-06-10T15:49:06.643Z,29.40
2017-06-10T15:51:34.196Z,29.30
2017-06-10T15:54:01.767Z,29.30
2017-06-10T15:56:29.297Z,29.40
2017-06-10T15:58:56.875Z,29.40
2017-06-10T16:01:24.408Z,29.30
2017-06-10T16:03:51.988Z,29.30
2017-06-10T16:06:19.851Z,29.50
2017-06-10T16:08:47.417Z,29.50
2017-06-10T16:11:14.964Z,29.30
2017-06-10T16:13:42.552Z,29.40
2017-06-10T16:16:10.204Z,29.30
2017-06-10T16:18:37.759Z,29.30
2017-06-10T16:21:05.405Z,29.30
2017-06-10T16:23:32.971Z,29.40
2017-06-10T16:26:00.503Z,29.30
2017-06-10T16:28:28.088Z,29.30
2017-06-10T16:30:55.652Z,29.30
2017-06-10T16:33:23.204Z,29.20
2017-06-10T16:35:50.767Z,29.20
2017-06-10T16:38:18.324Z,29.10
2017-06-10T16:40:45.884Z,29.00
2017-06-10T16:43:13.444Z,29.00
2017-06-10T16:45:40.976Z,28.90
2017-06-10T16:48:08.571Z,28.80
2017-06-10T16:50:36.123Z,28.60
2017-06-10T16:53:03.679Z,28.10
2017-06-10T16:55:31.223Z,27.60
2017-06-10T16:57:58.805Z,27.50
2017-06-10T17:00:26.342Z,27.30
2017-06-10T17:02:53.915Z,27.20
2017-06-10T17:05:21.471Z,27.20
2017-06-10T17:07:49.018Z,27.20
2017-06-10T17:10:16.592Z,27.10
2017-06-10T17:12:44.151Z,26.90
2017-06-10T17:15:11.712Z,27.00
2017-06-10T17:17:39.269Z,27.00
2017-06-10T17:20:06.827Z,26.80
2017-06-10T17:22:35.887Z,26.80
2017-06-10T17:25:03.485Z,26.80
2017-06-10T17:27:31.010Z,26.80
2017-06-10T17:29:58.539Z,26.70
2017-06-10T17:32:26.876Z,26.60
2017-06-10T17:34:54.431Z,26.60
2017-06-10T17:37:21.992Z,26.50
2017-06-10T17:39:49.528Z,26.40
2017-06-10T17:42:17.111Z,26.40
2017-06-10T17:44:44.672Z,26.10
2017-06-10T17:47:12.229Z,25.90
2017-06-10T17:49:39.762Z,25.80
2017-06-10T17:52:07.346Z,25.80
2017-06-10T17:54:34.876Z,25.80
2017-06-10T17:57:02.421Z,25.80
2017-06-10T17:59:29.960Z,25.70
2017-06-10T18:01:58.295Z,25.50
2017-06-10T18:04:25.855Z,25.50
2017-06-10T18:06:53.415Z,25.50
2017-06-10T18:09:20.959Z,25.50
2017-06-10T18:11:48.495Z,25.40
2017-06-10T18:14:16.026Z,25.30
2017-06-10T18:16:44.363Z,25.20
2017-06-10T18:19:11.897Z,25.20
2017-06-10T18:21:39.438Z,25.10
2017-06-10T18:24:07.731Z,25.00
2017-06-10T18:26:35.271Z,25.00
2017-06-10T18:29:03.563Z,24.90
2017-06-10T18:31:31.091Z,24.80
2017-06-10T18:33:59.427Z,24.70
2017-06-10T18:36:26.964Z,24.70
2017-06-10T18:38:54.547Z,24.70
2017-06-10T18:41:22.075Z,24.70
2017-06-10T18:43:49.667Z,24.60
2017-06-10T18:46:17.205Z,24.50
2017-06-10T18:48:44.783Z,24.40
2017-06-10T18:51:12.347Z,24.40
2017-06-10T18:53:39.900Z,24.30
2017-06-10T18:56:07.459Z,24.30
2017-06-10T18:58:35.019Z,24.20
2017-06-10T19:01:02.575Z,24.20
2017-06-10T19:03:30.135Z,24.20
2017-06-10T19:05:57.670Z,24.10
2017-06-10T19:08:25.259Z,24.00
2017-06-10T19:10:52.815Z,23.90
2017-06-10T19:13:20.637Z,23.80
2017-06-10T19:15:48.239Z,23.70
2017-06-10T19:18:15.797Z,23.70
2017-06-10T19:20:43.358Z,23.60
2017-06-10T19:23:10.916Z,23.50
2017-06-10T19:25:38.475Z,23.50
2017-06-10T19:28:06.035Z,23.60
2017-06-10T19:30:33.563Z,23.40
2017-06-10T19:33:01.100Z,23.30
2017-06-10T19:35:29.428Z,23.30
2017-06-10T19:37:56.988Z,23.20
2017-06-10T19:40:24.544Z,23.10
2017-06-10T19:42:52.104Z,23.00
2017-06-10T19:45:19.668Z,22.90
2017-06-10T19:47:47.227Z,22.90
2017-06-10T19:50:14.782Z,22.80
2017-06-10T19:52:42.340Z,22.70
2017-06-10T19:55:09.900Z,22.70
2017-06-10T19:57:37.424Z,22.70
2017-06-10T20:00:04.951Z,22.70
2017-06-10T20:02:33.291Z,22.50
2017-06-10T20:05:00.847Z,22.50
2017-06-10T20:07:28.410Z,22.40
2017-06-10T20:09:55.967Z,22.30
2017-06-10T20:12:23.531Z,22.30
2017-06-10T20:14:51.075Z,22.30
2017-06-10T20:17:18.644Z,22.30
2017-06-10T20:19:46.184Z,22.20
2017-06-10T20:22:13.764Z,22.20
2017-06-10T20:24:41.319Z,22.10
2017-06-10T20:27:08.875Z,22.10
2017-06-10T20:29:36.439Z,22.10
2017-06-10T20:32:03.995Z,21.90
2017-06-10T20:34:31.559Z,21.90
2017-06-10T20:36:59.115Z,21.90
2017-06-10T20:39:26.676Z,21.80
2017-06-10T20:41:54.242Z,21.80
2017-06-10T20:44:21.799Z,21.90
2017-06-10T20:46:49.334Z,21.90
2017-06-10T20:49:16.913Z,21.70
2017-06-10T20:51:44.450Z,21.70
2017-06-10T20:54:11.980Z,21.70
2017-06-10T20:56:39.584Z,21.70
2017-06-10T20:59:07.121Z,21.60
2017-06-10T21:01:34.663Z,21.60
2017-06-10T21:04:02.307Z,21.60
2017-06-10T21:06:30.615Z,21.60
2017-06-10T21:08:58.201Z,21.50
2017-06-10T21:11:25.755Z,21.50
2017-06-10T21:13:53.284Z,21.30
2017-06-10T21:16:20.877Z,21.40
2017-06-10T21:18:48.431Z,21.30
2017-06-10T21:21:15.960Z,21.20
2017-06-10T21:23:43.500Z,21.30
2017-06-10T21:26:11.830Z,21.10
2017-06-10T21:28:39.384Z,21.10
2017-06-10T21:31:06.947Z,21.10
2017-06-10T21:33:34.476Z,21.10
2017-06-10T21:36:02.059Z,21.00
2017-06-10T21:38:29.635Z,20.90
2017-06-10T21:40:57.300Z,21.00
2017-06-10T21:43:24.851Z,21.00
2017-06-10T21:45:52.400Z,20.90
2017-06-10T21:48:19.959Z,20.90
2017-06-10T21:50:47.504Z,20.90
2017-06-10T21:53:15.039Z,20.90
2017-06-10T21:55:42.636Z,20.90
2017-06-10T21:58:10.191Z,20.80
2017-06-10T22:00:37.752Z,20.80
2017-06-10T22:03:05.311Z,20.70
2017-06-10T22:05:32.871Z,20.50
2017-06-10T22:08:00.447Z,20.50
2017-06-10T22:10:27.986Z,20.50
2017-06-10T22:12:55.535Z,20.60
2017-06-10T22:15:23.107Z,20.60
2017-06-10T22:17:50.648Z,20.60
2017-06-10T22:20:18.182Z,20.50
2017-06-10T22:22:45.792Z,20.50
2017-06-10T22:25:13.344Z,20.50
2017-06-10T22:27:40.899Z,20.50
2017-06-10T22:30:08.432Z,20.40
2017-06-10T22:32:36.019Z,20.40
2017-06-10T22:35:03.552Z,20.30
2017-06-10T22:37:31.139Z,20.20
2017-06-10T22:39:58.795Z,20.30
2017-06-10T22:42:26.355Z,20.30
2017-06-10T22:44:53.918Z,20.40
2017-06-10T22:47:21.471Z,20.30
2017-06-10T22:49:49.031Z,20.30
2017-06-10T22:52:16.599Z,20.30
2017-06-10T22:54:44.147Z,20.20
2017-06-10T22:57:11.723Z,20.10
2017-06-10T22:59:39.389Z,20.10
2017-06-10T23:02:07.027Z,20.10
2017-06-10T23:04:34.596Z,20.10
2017-06-10T23:07:02.156Z,19.90
2017-06-10T23:09:29.709Z,19.90
2017-06-10T23:11:57.245Z,19.80
2017-06-10T23:14:24.832Z,19.90
2017-06-10T23:16:52.364Z,19.90
2017-06-10T23:19:19.942Z,19.90
2017-06-10T23:21:47.480Z,19.80
2017-06-10T23:24:15.058Z,19.70
2017-06-10T23:26:42.618Z,19.50
2017-06-10T23:29:10.184Z,19.40
2017-06-10T23:31:37.745Z,19.10
2017-06-10T23:34:05.289Z,19.10
2017-06-10T23:36:32.854Z,19.20
2017-06-10T23:39:00.419Z,19.40
2017-06-10T23:41:28.073Z,19.50
2017-06-10T23:43:55.603Z,19.50
2017-06-10T23:46:23.191Z,19.30
2017-06-10T23:48:50.756Z,19.40
2017-06-10T23:51:18.312Z,19.40
2017-06-10T23:53:45.848Z,19.40
2017-06-10T23:56:13.439Z,19.50
2017-06-10T23:58:41.159Z,19.50
